UPL weather

Upala Airport
Upala, Alajuela, Costa Rica

Public forecast

Using degrees Celsius for public forecast. Weather courtesy of forecast.io.

Closest aviation weather report (METAR) to Upala Airport

Report is more than 6 hours old.

Closest report is San Carlos, 20.5 nm (38.0 km) NE. Retrieved 2016/11/25 08:00 UTC (4 years ago):

MNSC 250800Z 00000KT 9999 SCT015TCU BKN060 23/22 Q1010 TCU/NW

Closest aviation forecast (TAF) to Upala Airport

Closest forecast is Daniel Oduber Quiros International Airport, 36.0 nm (66.6 km) WSW. Retrieved 2020-06-04 00:18 UTC (5 hours ago):

TAF MRLB 032300Z 0400/0424 15006KT 9999 FEW010 SCT100 TX30/0318Z TN23/0411Z BECMG 0414/0417 27007KT TEMPO 0420/0424 5000 TSRA FEW015CB BKN030